createdAt,value
2019-05-01T00:02:10.014Z,97278.75
2019-05-01T00:04:47.194Z,97269.98
2019-05-01T00:07:27.529Z,97269.40
2019-05-01T00:09:56.889Z,97272.26
2019-05-01T00:12:26.434Z,97265.37
2019-05-01T00:14:55.829Z,97265.83
2019-05-01T00:17:27.774Z,97266.08
2019-05-01T00:19:56.624Z,97263.27
2019-05-01T00:22:26.105Z,97268.20
2019-05-01T00:24:55.478Z,97261.44
2019-05-01T00:27:24.958Z,97259.89
2019-05-01T00:29:54.355Z,97250.18
2019-05-01T00:32:23.727Z,97254.69
2019-05-01T00:34:53.095Z,97252.81
2019-05-01T00:37:22.475Z,97248.09
2019-05-01T00:39:51.912Z,97253.09
2019-05-01T00:42:21.321Z,97257.22
2019-05-01T00:44:50.700Z,97253.73
2019-05-01T00:47:20.057Z,97251.61
2019-05-01T00:49:49.428Z,97250.23
2019-05-01T00:52:18.815Z,97244.28
2019-05-01T00:54:49.911Z,97244.84
2019-05-01T00:57:27.251Z,97238.91
2019-05-01T01:00:10.195Z,97235.55
2019-05-01T01:02:42.224Z,97236.24
2019-05-01T01:05:11.634Z,97237.83
2019-05-01T01:07:41.114Z,97230.83
2019-05-01T01:10:10.605Z,97230.66
2019-05-01T01:12:40.069Z,97222.09
2019-05-01T01:15:09.415Z,97221.28
2019-05-01T01:17:38.825Z,97222.35
2019-05-01T01:20:08.248Z,97216.02
2019-05-01T01:22:37.684Z,97220.19
2019-05-01T01:25:07.573Z,97223.60
2019-05-01T01:27:37.109Z,97219.69
2019-05-01T01:30:07.569Z,97226.39
2019-05-01T01:32:37.010Z,97222.91
2019-05-01T01:35:06.756Z,97220.51
2019-05-01T01:37:36.095Z,97217.14
2019-05-01T01:40:06.346Z,97220.12
2019-05-01T01:42:36.453Z,97210.86
2019-05-01T01:45:30.739Z,97213.47
2019-05-01T01:48:16.619Z,97213.47
2019-05-01T01:50:46.547Z,97213.25
2019-05-01T01:53:18.318Z,97213.98
2019-05-01T01:55:47.919Z,97210.91
2019-05-01T01:58:17.706Z,97212.56
2019-05-01T02:01:09.196Z,97206.73
2019-05-01T02:03:36.663Z,97199.46
2019-05-01T02:06:06.090Z,97196.66
2019-05-01T02:08:35.517Z,97199.61
2019-05-01T02:11:04.934Z,97201.22
2019-05-01T02:13:34.349Z,97198.38
2019-05-01T02:16:03.710Z,97204.41
2019-05-01T02:18:33.125Z,97195.38
2019-05-01T02:21:02.584Z,97193.96
2019-05-01T02:23:31.936Z,97197.14
2019-05-01T02:26:01.439Z,97192.72
2019-05-01T02:28:41.681Z,97185.02
2019-05-01T02:31:27.851Z,97190.19
2019-05-01T02:33:57.285Z,97192.55
2019-05-01T02:36:28.011Z,97186.12
2019-05-01T02:38:57.882Z,97187.18
2019-05-01T02:41:32.482Z,97181.06
2019-05-01T02:44:08.173Z,97179.14
2019-05-01T02:46:38.070Z,97178.55
2019-05-01T02:49:11.085Z,97188.98
2019-05-01T02:51:41.621Z,97185.56
2019-05-01T02:54:12.280Z,97180.28
2019-05-01T02:56:54.585Z,97173.61
2019-05-01T02:59:25.245Z,97173.28
2019-05-01T03:01:55.586Z,97174.48
2019-05-01T03:04:25.257Z,97176.47
2019-05-01T03:06:54.927Z,97179.92
2019-05-01T03:09:24.703Z,97174.06
2019-05-01T03:11:55.274Z,97174.12
2019-05-01T03:14:26.920Z,97176.19
2019-05-01T03:16:58.723Z,97178.50
2019-05-01T03:19:46.380Z,97174.92
2019-05-01T03:22:29.188Z,97178.05
2019-05-01T03:24:59.167Z,97184.09
2019-05-01T03:27:28.848Z,97179.74
2019-05-01T03:29:58.408Z,97185.30
2019-05-01T03:32:27.996Z,97181.50
2019-05-01T03:34:57.557Z,97185.09
2019-05-01T03:37:27.119Z,97181.67
2019-05-01T03:39:56.681Z,97176.30
2019-05-01T03:42:26.262Z,97172.02
2019-05-01T03:44:55.830Z,97172.25
2019-05-01T03:47:25.409Z,97174.95
2019-05-01T03:49:54.971Z,97171.17
2019-05-01T03:52:24.542Z,97173.30
2019-05-01T03:54:54.226Z,97178.80
2019-05-01T03:57:24.202Z,97168.91
2019-05-01T03:59:53.891Z,97167.63
2019-05-01T04:02:44.009Z,97168.04
2019-05-01T04:05:13.570Z,97167.44
2019-05-01T04:07:43.252Z,97172.71
2019-05-01T04:10:12.939Z,97171.77
2019-05-01T04:12:43.023Z,97167.24
2019-05-01T04:15:12.887Z,97174.27
2019-05-01T04:17:50.280Z,97164.50
2019-05-01T04:20:19.914Z,97168.19
2019-05-01T04:22:49.775Z,97172.78
2019-05-01T04:25:19.377Z,97172.59
2019-05-01T04:27:50.737Z,97176.50
2019-05-01T04:30:39.401Z,97174.83
2019-05-01T04:33:11.681Z,97169.38
2019-05-01T04:36:12.750Z,97173.84
2019-05-01T04:38:42.676Z,97183.06
2019-05-01T04:41:12.454Z,97186.39
2019-05-01T04:43:42.009Z,97188.08
2019-05-01T04:46:11.586Z,97188.37
2019-05-01T04:48:41.200Z,97187.23
2019-05-01T04:51:10.715Z,97191.41
2019-05-01T04:53:40.400Z,97186.38
2019-05-01T04:56:09.987Z,97190.45
2019-05-01T04:58:39.589Z,97196.77
2019-05-01T05:01:09.361Z,97201.61
2019-05-01T05:03:38.927Z,97194.91
2019-05-01T05:06:08.982Z,97201.67
2019-05-01T05:08:38.535Z,97204.52
2019-05-01T05:11:13.399Z,97202.39
2019-05-01T05:14:02.143Z,97205.98
2019-05-01T05:16:46.564Z,97204.43
2019-05-01T05:19:16.256Z,97202.41
2019-05-01T05:21:45.820Z,97200.14
2019-05-01T05:24:15.419Z,97199.25
2019-05-01T05:26:45.110Z,97198.09
2019-05-01T05:29:15.702Z,97206.00
2019-05-01T05:31:46.151Z,97198.77
2019-05-01T05:34:18.235Z,97208.08
2019-05-01T05:36:49.920Z,97216.72
2019-05-01T05:39:28.686Z,97215.30
2019-05-01T05:41:58.752Z,97210.72
2019-05-01T05:44:28.622Z,97215.06
2019-05-01T05:46:58.196Z,97212.82
2019-05-01T05:49:27.986Z,97218.93
2019-05-01T05:52:06.662Z,97224.20
2019-05-01T05:54:43.122Z,97226.59
2019-05-01T05:57:20.001Z,97216.54
2019-05-01T06:00:11.220Z,97219.31
2019-05-01T06:02:52.788Z,97217.59
2019-05-01T06:05:43.575Z,97216.72
2019-05-01T06:08:19.549Z,97203.69
2019-05-01T06:11:09.200Z,97211.95
2019-05-01T06:13:58.917Z,97212.31
2019-05-01T06:16:36.072Z,97212.31
2019-05-01T06:19:22.849Z,97207.62
2019-05-01T06:22:11.606Z,97207.58
2019-05-01T06:24:44.703Z,97208.16
2019-05-01T06:27:15.087Z,97208.74
2019-05-01T06:29:45.039Z,97211.80
2019-05-01T06:32:14.639Z,97205.05
2019-05-01T06:34:44.529Z,97210.61
2019-05-01T06:37:14.088Z,97205.24
2019-05-01T06:39:48.145Z,97203.91
2019-05-01T06:42:16.916Z,97203.58
2019-05-01T06:44:51.960Z,97208.23
2019-05-01T06:47:38.135Z,97208.52
2019-05-01T06:50:14.985Z,97207.87
2019-05-01T06:52:44.697Z,97198.69
2019-05-01T06:55:14.476Z,97197.03
2019-05-01T06:57:45.660Z,97201.67
2019-05-01T07:00:17.420Z,97204.95
2019-05-01T07:02:48.129Z,97201.34
2019-05-01T07:05:17.739Z,97203.25
2019-05-01T07:07:48.250Z,97207.38
2019-05-01T07:10:29.798Z,97212.16
2019-05-01T07:12:50.152Z,97205.83
2019-05-01T07:15:21.843Z,97203.02
2019-05-01T07:17:51.275Z,97208.02
2019-05-01T07:20:47.419Z,97208.27
2019-05-01T07:23:18.701Z,97206.67
2019-05-01T07:25:48.544Z,97194.69
2019-05-01T07:28:18.218Z,97202.42
2019-05-01T07:30:55.113Z,97201.47
2019-05-01T07:33:25.837Z,97209.55
2019-05-01T07:35:55.566Z,97209.92
2019-05-01T07:38:25.099Z,97212.71
2019-05-01T07:40:58.817Z,97211.07
2019-05-01T07:43:33.341Z,97212.53
2019-05-01T07:46:18.449Z,97216.61
2019-05-01T07:48:46.729Z,97204.30
2019-05-01T07:51:16.405Z,97203.21
2019-05-01T07:53:46.419Z,97200.84
2019-05-01T07:56:17.228Z,97195.76
2019-05-01T07:58:47.477Z,97201.32
2019-05-01T08:01:54.526Z,97203.05
2019-05-01T08:04:35.791Z,97200.98
2019-05-01T08:06:57.073Z,97201.98
2019-05-01T08:09:26.672Z,97201.45
2019-05-01T08:11:56.307Z,97196.80
2019-05-01T08:14:25.870Z,97192.97
2019-05-01T08:16:55.516Z,97191.77
2019-05-01T08:19:34.687Z,97193.82
2019-05-01T08:22:14.324Z,97186.73
2019-05-01T08:24:44.076Z,97187.00
2019-05-01T08:27:58.154Z,97191.28
2019-05-01T08:30:38.695Z,97187.45
2019-05-01T08:33:33.339Z,97189.05
2019-05-01T08:36:06.787Z,97187.76
2019-05-01T08:38:35.443Z,97185.47
2019-05-01T08:41:05.117Z,97177.55
2019-05-01T08:43:36.032Z,97185.81
2019-05-01T08:46:24.938Z,97178.08
2019-05-01T08:49:22.944Z,97173.38
2019-05-01T08:51:52.630Z,97174.48
2019-05-01T08:54:22.281Z,97173.16
2019-05-01T08:56:52.936Z,97173.64
2019-05-01T08:59:25.649Z,97176.75
2019-05-01T09:02:08.419Z,97169.28
2019-05-01T09:04:30.317Z,97176.30
2019-05-01T09:06:57.769Z,97177.98
2019-05-01T09:09:27.507Z,97179.94
2019-05-01T09:11:57.201Z,97165.63
2019-05-01T09:14:29.935Z,97178.56
2019-05-01T09:16:57.642Z,97170.95
2019-05-01T09:19:27.072Z,97169.83
2019-05-01T09:21:56.432Z,97177.15
2019-05-01T09:24:27.989Z,97174.48
2019-05-01T09:27:29.482Z,97172.08
2019-05-01T09:29:59.991Z,97166.32
2019-05-01T09:32:29.332Z,97159.77
2019-05-01T09:34:58.782Z,97170.70
2019-05-01T09:37:28.563Z,97159.59
2019-05-01T09:39:58.027Z,97157.49
2019-05-01T09:42:27.454Z,97157.02
2019-05-01T09:44:56.857Z,97153.33
2019-05-01T09:47:26.850Z,97151.73
2019-05-01T09:49:56.320Z,97154.25
2019-05-01T09:53:03.247Z,97147.41
2019-05-01T09:55:39.889Z,97150.25
2019-05-01T09:58:09.247Z,97150.98
2019-05-01T10:00:38.763Z,97140.09
2019-05-01T10:03:08.209Z,97137.05
2019-05-01T10:05:37.953Z,97133.81
2019-05-01T10:08:08.612Z,97132.84
2019-05-01T10:10:38.043Z,97136.22
2019-05-01T10:13:07.804Z,97135.77
2019-05-01T10:15:37.174Z,97138.30
2019-05-01T10:18:06.601Z,97141.28
2019-05-01T10:20:36.000Z,97140.58
2019-05-01T10:23:07.762Z,97147.22
2019-05-01T10:25:42.912Z,97138.91
2019-05-01T10:28:17.790Z,97140.25
2019-05-01T10:30:58.090Z,97137.59
2019-05-01T10:33:28.967Z,97129.64
2019-05-01T10:36:18.810Z,97129.28
2019-05-01T10:38:48.070Z,97126.97
2019-05-01T10:41:17.433Z,97114.64
2019-05-01T10:43:46.904Z,97113.48
2019-05-01T10:46:16.321Z,97120.21
2019-05-01T10:48:45.694Z,97107.86
2019-05-01T10:51:15.063Z,97112.03
2019-05-01T10:53:44.425Z,97108.91
2019-05-01T10:56:13.858Z,97108.34
2019-05-01T10:58:43.308Z,97109.55
2019-05-01T11:01:21.343Z,97099.75
2019-05-01T11:03:50.701Z,97094.15
2019-05-01T11:06:20.154Z,97099.26
2019-05-01T11:08:49.523Z,97096.95
2019-05-01T11:11:18.867Z,97091.63
2019-05-01T11:13:49.322Z,97096.58
2019-05-01T11:16:18.674Z,97094.57
2019-05-01T11:18:48.042Z,97096.42
2019-05-01T11:21:17.398Z,97095.22
2019-05-01T11:23:46.790Z,97094.71
2019-05-01T11:26:16.138Z,97099.03
2019-05-01T11:28:45.507Z,97095.88
2019-05-01T11:31:17.238Z,97084.07
2019-05-01T11:34:20.457Z,97088.72
2019-05-01T11:37:07.614Z,97085.39
2019-05-01T11:39:49.571Z,97091.36
2019-05-01T11:42:19.008Z,97087.78
2019-05-01T11:44:48.363Z,97078.96
2019-05-01T11:47:17.692Z,97073.48
2019-05-01T11:49:47.034Z,97076.97
2019-05-01T11:52:16.442Z,97067.00
2019-05-01T11:54:45.797Z,97071.48
2019-05-01T11:57:15.159Z,97070.98
2019-05-01T11:59:44.536Z,97068.83
2019-05-01T12:02:13.932Z,97072.48
2019-05-01T12:04:43.294Z,97070.98
2019-05-01T12:07:12.656Z,97078.12
2019-05-01T12:09:42.098Z,97074.47
2019-05-01T12:12:13.895Z,97074.14
2019-05-01T12:14:43.258Z,97077.96
2019-05-01T12:17:26.939Z,97069.98
2019-05-01T12:19:56.324Z,97066.97
2019-05-01T12:22:25.689Z,97058.51
2019-05-01T12:24:55.056Z,97066.34
2019-05-01T12:27:24.398Z,97062.00
2019-05-01T12:29:53.813Z,97065.20
2019-05-01T12:32:23.231Z,97064.20
2019-05-01T12:34:52.576Z,97062.67
2019-05-01T12:37:31.577Z,97056.86
2019-05-01T12:40:00.933Z,97064.02
2019-05-01T12:42:31.133Z,97062.41
2019-05-01T12:45:00.529Z,97059.36
2019-05-01T12:47:39.854Z,97057.53
2019-05-01T12:50:09.732Z,97050.22
2019-05-01T12:53:07.077Z,97047.43
2019-05-01T12:55:55.549Z,97048.43
2019-05-01T12:58:24.886Z,97044.50
2019-05-01T13:00:55.006Z,97045.78
2019-05-01T13:03:24.483Z,97039.20
2019-05-01T13:05:53.838Z,97037.21
2019-05-01T13:08:23.202Z,97037.45
2019-05-01T13:10:52.702Z,97042.09
2019-05-01T13:13:22.245Z,97042.52
2019-05-01T13:15:51.591Z,97032.21
2019-05-01T13:18:21.021Z,97033.14
2019-05-01T13:20:50.360Z,97026.48
2019-05-01T13:23:19.721Z,97031.80
2019-05-01T13:25:50.262Z,97021.14
2019-05-01T13:28:35.859Z,97020.13
2019-05-01T13:31:33.647Z,97023.47
2019-05-01T13:34:03.068Z,97018.46
2019-05-01T13:36:32.414Z,97023.40
2019-05-01T13:39:01.795Z,97016.77
2019-05-01T13:41:31.212Z,97011.81
2019-05-01T13:44:00.563Z,97015.28
2019-05-01T13:46:30.018Z,97011.75
2019-05-01T13:48:59.522Z,97006.70
2019-05-01T13:51:28.934Z,97013.64
2019-05-01T13:53:58.301Z,97005.61
2019-05-01T13:56:27.635Z,96996.50
2019-05-01T13:58:57.056Z,96990.73
2019-05-01T14:01:26.791Z,97002.52
2019-05-01T14:03:56.140Z,96991.89
2019-05-01T14:06:25.555Z,96993.17
2019-05-01T14:08:54.922Z,96993.88
2019-05-01T14:11:24.274Z,96987.92
2019-05-01T14:13:53.669Z,96987.47
2019-05-01T14:16:23.115Z,96982.56
2019-05-01T14:18:52.568Z,96982.05
2019-05-01T14:21:33.157Z,96981.80
2019-05-01T14:24:20.560Z,96982.31
2019-05-01T14:26:49.909Z,96977.59
2019-05-01T14:29:19.273Z,96974.66
2019-05-01T14:31:48.678Z,96972.91
2019-05-01T14:34:18.020Z,96967.67
2019-05-01T14:36:47.374Z,96968.53
2019-05-01T14:39:16.807Z,96965.73
2019-05-01T14:41:46.139Z,96965.94
2019-05-01T14:44:15.526Z,96965.73
2019-05-01T14:46:44.868Z,96972.48
2019-05-01T14:49:14.313Z,96963.27
2019-05-01T14:51:43.691Z,96960.03
2019-05-01T14:54:13.101Z,96959.66
2019-05-01T14:56:43.420Z,96960.78
2019-05-01T14:59:13.021Z,96959.11
2019-05-01T15:01:42.444Z,96953.89
2019-05-01T15:04:11.887Z,96958.56
2019-05-01T15:06:41.363Z,96943.16
2019-05-01T15:09:10.991Z,96948.48
2019-05-01T15:11:41.718Z,96952.66
2019-05-01T15:14:28.686Z,96943.11
2019-05-01T15:17:17.438Z,96943.39
2019-05-01T15:19:55.184Z,96932.38
2019-05-01T15:22:24.822Z,96933.67
2019-05-01T15:24:54.248Z,96935.84
2019-05-01T15:27:24.080Z,96933.47
2019-05-01T15:29:53.597Z,96940.39
2019-05-01T15:32:23.197Z,96927.26
2019-05-01T15:34:52.740Z,96927.14
2019-05-01T15:37:22.298Z,96923.44
2019-05-01T15:39:59.415Z,96932.25
2019-05-01T15:42:42.663Z,96930.23
2019-05-01T15:45:12.874Z,96921.87
2019-05-01T15:47:42.385Z,96923.56
2019-05-01T15:50:11.988Z,96921.78
2019-05-01T15:52:41.477Z,96922.22
2019-05-01T15:55:11.217Z,96916.87
2019-05-01T15:57:40.686Z,96918.25
2019-05-01T16:00:12.111Z,96918.36
2019-05-01T16:02:41.525Z,96917.02
2019-05-01T16:05:11.117Z,96910.89
2019-05-01T16:07:42.231Z,96914.51
2019-05-01T16:10:14.128Z,96910.43
2019-05-01T16:13:02.492Z,96907.64
2019-05-01T16:15:33.607Z,96911.77
2019-05-01T16:18:03.683Z,96913.87
2019-05-01T16:20:33.212Z,96912.38
2019-05-01T16:23:02.740Z,96909.67
2019-05-01T16:25:32.311Z,96915.72
2019-05-01T16:28:01.840Z,96913.30
2019-05-01T16:30:31.317Z,96910.62
2019-05-01T16:33:00.829Z,96911.94
2019-05-01T16:35:30.381Z,96900.88
2019-05-01T16:38:02.011Z,96907.55
2019-05-01T16:40:45.154Z,96906.09
2019-05-01T16:43:15.052Z,96897.56
2019-05-01T16:45:44.576Z,96903.48
2019-05-01T16:48:14.032Z,96895.16
2019-05-01T16:50:43.556Z,96896.23
2019-05-01T16:53:13.135Z,96897.81
2019-05-01T16:55:43.048Z,96891.52
2019-05-01T16:58:15.022Z,96889.74
2019-05-01T17:01:04.187Z,96893.48
2019-05-01T17:03:44.229Z,96893.04
2019-05-01T17:06:18.568Z,96892.55
2019-05-01T17:09:00.388Z,96896.23
2019-05-01T17:11:31.877Z,96889.44
2019-05-01T17:14:01.454Z,96894.56
2019-05-01T17:16:31.084Z,96891.89
2019-05-01T17:19:00.579Z,96884.20
2019-05-01T17:21:30.049Z,96894.62
2019-05-01T17:23:59.651Z,96885.59
2019-05-01T17:26:29.226Z,96893.98
2019-05-01T17:28:58.687Z,96892.67
2019-05-01T17:31:28.520Z,96888.97
2019-05-01T17:33:58.037Z,96891.39
2019-05-01T17:36:27.565Z,96888.77
2019-05-01T17:38:57.022Z,96883.17
2019-05-01T17:41:27.450Z,96890.43
2019-05-01T17:43:57.808Z,96884.77
2019-05-01T17:46:27.242Z,96885.33
2019-05-01T17:48:56.758Z,96878.16
2019-05-01T17:51:26.192Z,96888.69
2019-05-01T17:53:55.714Z,96887.73
2019-05-01T17:56:28.286Z,96881.94
2019-05-01T17:58:59.285Z,96882.82
2019-05-01T18:01:49.551Z,96882.87
2019-05-01T18:04:33.318Z,96882.41
2019-05-01T18:07:02.933Z,96889.31
2019-05-01T18:09:32.444Z,96888.94
2019-05-01T18:12:07.224Z,96881.67
2019-05-01T18:14:36.724Z,96888.06
2019-05-01T18:17:06.350Z,96881.30
2019-05-01T18:19:35.833Z,96882.86
2019-05-01T18:22:26.904Z,96886.08
2019-05-01T18:25:14.021Z,96886.13
2019-05-01T18:28:01.800Z,96885.06
2019-05-01T18:30:36.174Z,96881.65
2019-05-01T18:33:05.904Z,96888.06
2019-05-01T18:35:35.618Z,96892.95
2019-05-01T18:38:14.745Z,96896.04
2019-05-01T18:40:49.761Z,96890.61
2019-05-01T18:43:19.245Z,96889.34
2019-05-01T18:45:50.917Z,96892.39
2019-05-01T18:48:20.984Z,96894.28
2019-05-01T18:50:54.671Z,96893.63
2019-05-01T18:53:21.973Z,96897.50
2019-05-01T18:55:51.534Z,96894.39
2019-05-01T18:58:20.972Z,96900.08
2019-05-01T19:00:50.907Z,96897.47
2019-05-01T19:03:22.410Z,96892.88
2019-05-01T19:05:51.748Z,96895.91
2019-05-01T19:08:21.253Z,96899.27
2019-05-01T19:10:50.778Z,96897.80
2019-05-01T19:13:20.708Z,96896.51
2019-05-01T19:15:50.317Z,96893.38
2019-05-01T19:18:19.858Z,96893.40
2019-05-01T19:20:59.269Z,96891.93
2019-05-01T19:23:22.113Z,96891.95
2019-05-01T19:25:51.931Z,96890.11
2019-05-01T19:28:22.559Z,96884.48
2019-05-01T19:30:52.107Z,96888.48
2019-05-01T19:33:21.635Z,96890.52
2019-05-01T19:35:51.155Z,96889.20
2019-05-01T19:38:21.493Z,96885.23
2019-05-01T19:40:50.948Z,96887.39
2019-05-01T19:43:20.518Z,96881.77
2019-05-01T19:45:49.968Z,96890.73
2019-05-01T19:48:19.518Z,96886.26
2019-05-01T19:50:49.640Z,96890.25
2019-05-01T19:53:19.208Z,96893.41
2019-05-01T19:55:48.989Z,96889.59
2019-05-01T19:58:18.511Z,96891.76
2019-05-01T20:00:55.889Z,96886.45
2019-05-01T20:03:26.016Z,96890.27
2019-05-01T20:05:59.678Z,96891.44
2019-05-01T20:08:28.430Z,96890.11
2019-05-01T20:10:57.979Z,96891.10
2019-05-01T20:13:27.522Z,96882.14
2019-05-01T20:15:56.987Z,96891.25
2019-05-01T20:18:26.535Z,96891.09
2019-05-01T20:20:55.994Z,96894.06
2019-05-01T20:23:31.574Z,96892.23
2019-05-01T20:25:58.626Z,96883.45
2019-05-01T20:28:28.465Z,96879.95
2019-05-01T20:30:58.202Z,96885.25
2019-05-01T20:33:27.747Z,96884.59
2019-05-01T20:36:00.536Z,96878.13
2019-05-01T20:38:28.654Z,96881.76
2019-05-01T20:40:58.259Z,96878.27
2019-05-01T20:43:27.739Z,96879.41
2019-05-01T20:45:57.301Z,96878.07
2019-05-01T20:48:26.798Z,96872.10
2019-05-01T20:50:56.313Z,96879.58
2019-05-01T20:53:26.967Z,96879.25
2019-05-01T20:56:03.008Z,96876.91
2019-05-01T20:58:38.451Z,96872.92
2019-05-01T21:01:07.939Z,96874.91
2019-05-01T21:03:42.674Z,96876.37
2019-05-01T21:06:24.337Z,96873.69
2019-05-01T21:09:13.853Z,96876.48
2019-05-01T21:11:47.389Z,96871.81
2019-05-01T21:14:22.629Z,96870.45
2019-05-01T21:16:49.388Z,96868.46
2019-05-01T21:19:18.847Z,96868.30
2019-05-01T21:21:48.291Z,96872.45
2019-05-01T21:24:17.823Z,96876.39
2019-05-01T21:26:47.338Z,96870.75
2019-05-01T21:29:16.820Z,96870.36
2019-05-01T21:31:46.329Z,96868.18
2019-05-01T21:34:15.815Z,96866.86
2019-05-01T21:36:47.366Z,96864.03
2019-05-01T21:39:17.958Z,96860.04
2019-05-01T21:41:47.656Z,96861.70
2019-05-01T21:44:17.218Z,96853.92
2019-05-01T21:46:46.840Z,96861.02
2019-05-01T21:49:16.402Z,96854.86
2019-05-01T21:51:46.354Z,96863.12
2019-05-01T21:54:22.193Z,96858.97
2019-05-01T21:56:51.694Z,96856.81
2019-05-01T21:59:21.100Z,96856.62
2019-05-01T22:01:50.644Z,96852.33
2019-05-01T22:04:20.084Z,96855.77
2019-05-01T22:06:51.986Z,96850.58
2019-05-01T22:09:21.599Z,96847.27
2019-05-01T22:11:51.030Z,96844.62
2019-05-01T22:14:38.400Z,96849.72
2019-05-01T22:17:14.013Z,96849.11
2019-05-01T22:19:43.370Z,96846.90
2019-05-01T22:22:19.279Z,96844.90
2019-05-01T22:24:59.618Z,96839.09
2019-05-01T22:27:34.835Z,96841.97
2019-05-01T22:30:13.794Z,96846.73
2019-05-01T22:32:46.951Z,96843.90
2019-05-01T22:35:18.935Z,96849.61
2019-05-01T22:37:48.395Z,96849.91
2019-05-01T22:40:20.833Z,96847.83
2019-05-01T22:42:50.182Z,96843.75
2019-05-01T22:45:22.258Z,96845.61
2019-05-01T22:47:52.200Z,96836.66
2019-05-01T22:50:21.737Z,96839.75
2019-05-01T22:52:51.286Z,96837.22
2019-05-01T22:55:25.223Z,96833.37
2019-05-01T22:57:51.723Z,96837.30
2019-05-01T23:00:33.517Z,96836.66
2019-05-01T23:03:05.568Z,96835.30
2019-05-01T23:05:35.435Z,96829.82
2019-05-01T23:08:04.881Z,96841.30
2019-05-01T23:10:34.589Z,96834.42
2019-05-01T23:13:04.131Z,96830.98
2019-05-01T23:15:33.918Z,96825.13
2019-05-01T23:18:03.414Z,96829.17
2019-05-01T23:20:34.720Z,96826.83
2019-05-01T23:23:03.888Z,96827.43
2019-05-01T23:25:36.559Z,96822.89
2019-05-01T23:28:06.075Z,96821.04
2019-05-01T23:30:35.558Z,96814.50
2019-05-01T23:33:04.999Z,96815.09
2019-05-01T23:35:34.433Z,96815.09
2019-05-01T23:38:03.896Z,96804.88
2019-05-01T23:40:33.322Z,96799.89
2019-05-01T23:43:02.703Z,96802.83
2019-05-01T23:45:32.030Z,96802.34
2019-05-01T23:48:01.433Z,96799.70
2019-05-01T23:50:30.870Z,96794.57
2019-05-01T23:53:00.233Z,96795.79
2019-05-01T23:55:29.577Z,96787.58
2019-05-01T23:57:59.023Z,96785.03
